Time;durP1;ratioP1;P1;durP2;ratioP2;P2;SDS_P1;SDS_P2;PMS_P1;PMS_P2;Temp;Humidity;BMP_temperature;BMP_pressure;BME280_temperature;BME280_humidity;BME280_pressure;Samples;Min_cycle;Max_cycle;Signal;HPM_P1;HPM_P2
2021/01/08 00:01:03;;;;;;;1.35;0.88;;;;;;;3.75;73.59;99685.23;1758444;80;21964;-38
2021/01/08 00:03:31;;;;;;;1.15;0.82;;;;;;;3.75;73.68;99689.19;1720937;82;21099;-37
2021/01/08 00:05:59;;;;;;;1.70;1.05;;;;;;;3.79;73.34;99698.69;1754515;80;21106;-37
2021/01/08 00:08:26;;;;;;;1.60;1.10;;;;;;;3.76;73.04;99694.41;1755033;80;21958;-38
2021/01/08 00:10:54;;;;;;;1.20;1.10;;;;;;;3.70;73.26;99690.70;1724384;82;21312;-37
2021/01/08 00:13:22;;;;;;;1.70;1.37;;;;;;;3.67;73.21;99700.91;1756239;80;21153;-41
2021/01/08 00:15:50;;;;;;;1.55;1.10;;;;;;;3.66;73.19;99691.30;1762048;80;21287;-40
2021/01/08 00:18:17;;;;;;;1.47;0.98;;;;;;;3.66;72.95;99692.62;1756482;80;21138;-42
2021/01/08 00:20:45;;;;;;;1.30;1.00;;;;;;;3.64;72.59;99699.73;1757113;80;21585;-39
2021/01/08 00:23:12;;;;;;;1.75;1.20;;;;;;;3.63;72.61;99698.03;1760015;80;21299;-37
2021/01/08 00:25:40;;;;;;;1.20;1.10;;;;;;;3.63;72.42;99701.98;1756581;80;21632;-43
2021/01/08 00:28:08;;;;;;;1.37;0.95;;;;;;;3.66;72.31;99697.04;1730315;82;21289;-41
2021/01/08 00:30:36;;;;;;;1.45;1.22;;;;;;;3.66;72.36;99694.41;1759308;81;21134;-40
2021/01/08 00:33:03;;;;;;;1.60;1.10;;;;;;;3.68;72.24;99707.07;1754408;80;21275;-39
2021/01/08 00:35:31;;;;;;;2.35;0.90;;;;;;;3.68;72.14;99709.70;1755846;80;21114;-40
2021/01/08 00:37:58;;;;;;;1.90;1.37;;;;;;;3.67;71.78;99710.14;1759568;81;21116;-38
2021/01/08 00:40:26;;;;;;;1.62;0.85;;;;;;;3.64;71.57;99717.34;1760630;80;21122;-41
2021/01/08 00:42:54;;;;;;;1.10;0.65;;;;;;;3.60;71.61;99700.80;1696523;82;21175;-39
2021/01/08 00:45:22;;;;;;;2.15;1.22;;;;;;;3.58;71.63;99715.83;1758643;80;21142;-41
2021/01/08 00:47:50;;;;;;;1.30;0.98;;;;;;;3.57;71.63;99720.68;1758317;80;21133;-39
2021/01/08 00:55:22;;;;;;;2.05;1.55;;;;;;;3.60;71.64;99727.17;1799158;78;23603;-39
2021/01/08 00:57:51;;;;;;;0.88;0.85;;;;;;;3.60;71.83;99738.16;1772756;80;21747;-44
2021/01/08 01:00:20;;;;;;;1.35;0.95;;;;;;;3.59;71.47;99735.98;1771535;79;21291;-41
2021/01/08 01:02:48;;;;;;;1.47;1.07;;;;;;;3.57;71.42;99728.59;1780948;79;21172;-42
2021/01/08 01:05:15;;;;;;;6.25;1.17;;;;;;;3.54;71.47;99737.10;1781905;79;21110;-41
2021/01/08 01:07:45;;;;;;;1.17;0.90;;;;;;;3.52;71.61;99734.98;1782605;80;21160;-42
2021/01/08 01:10:13;;;;;;;2.12;1.17;;;;;;;3.48;71.37;99739.53;1783439;79;21299;-43
2021/01/08 01:12:40;;;;;;;2.15;1.15;;;;;;;3.48;71.44;99754.04;1783478;80;21624;-42
2021/01/08 01:15:08;;;;;;;1.07;0.82;;;;;;;3.46;70.91;99748.81;1782473;79;21291;-42
2021/01/08 01:17:41;;;;;;;1.45;0.90;;;;;;;3.46;70.95;99753.23;1775784;79;21125;-37
2021/01/08 01:20:12;;;;;;;1.60;0.95;;;;;;;3.46;71.17;99755.41;1769322;79;21264;-39
2021/01/08 01:22:40;;;;;;;1.40;1.05;;;;;;;3.47;71.42;99760.21;1778379;79;21143;-41
2021/01/08 01:25:11;;;;;;;2.10;1.10;;;;;;;3.50;71.66;99759.23;1770207;79;21121;-42
2021/01/08 01:27:38;;;;;;;2.17;1.22;;;;;;;3.52;71.93;99756.08;1782482;80;21106;-43
2021/01/08 01:30:08;;;;;;;1.12;0.93;;;;;;;3.55;72.14;99763.85;1780954;79;21114;-41
2021/01/08 01:32:36;;;;;;;2.15;1.40;;;;;;;3.57;72.47;99761.55;1781467;79;21155;-42
2021/01/08 01:35:05;;;;;;;1.00;0.88;;;;;;;3.60;72.41;99760.13;1781175;79;21623;-42
2021/01/08 01:37:32;;;;;;;2.10;1.42;;;;;;;3.63;72.55;99765.27;1782095;79;21275;-38
2021/01/08 01:40:00;;;;;;;1.90;1.52;;;;;;;3.64;72.55;99767.44;1749374;81;21160;-40
2021/01/08 01:42:27;;;;;;;2.37;1.67;;;;;;;3.64;72.62;99761.70;1749833;81;21636;-39
2021/01/08 01:44:55;;;;;;;2.20;1.50;;;;;;;3.67;72.67;99756.30;1720364;81;21134;-41
2021/01/08 01:47:23;;;;;;;2.92;1.80;;;;;;;3.68;72.47;99764.62;1728914;82;21164;-40
2021/01/08 01:49:51;;;;;;;2.20;1.67;;;;;;;3.69;72.57;99766.32;1736525;82;21313;-40
2021/01/08 01:52:19;;;;;;;2.45;1.62;;;;;;;3.74;72.57;99762.18;1673090;83;21326;-40
2021/01/08 01:54:46;;;;;;;2.58;1.90;;;;;;;3.77;72.53;99760.73;1702611;81;21161;-42
2021/01/08 01:57:14;;;;;;;2.67;1.87;;;;;;;3.80;72.65;99761.06;1724437;82;21161;-40
2021/01/08 01:59:41;;;;;;;2.25;1.85;;;;;;;3.85;72.42;99777.08;1722491;82;21284;-38
2021/01/08 02:02:14;;;;;;;2.52;1.85;;;;;;;3.87;72.29;99770.44;1726225;82;21186;-40
2021/01/08 02:04:42;;;;;;;3.60;2.30;;;;;;;3.84;71.90;99774.53;1723754;82;21157;-37
2021/01/08 02:07:10;;;;;;;3.42;1.95;;;;;;;3.80;71.97;99777.73;1725864;82;21681;-42
2021/01/08 02:09:38;;;;;;;2.83;1.80;;;;;;;3.79;72.17;99772.08;1721909;82;21145;-40
2021/01/08 02:12:07;;;;;;;2.42;1.85;;;;;;;3.80;72.09;99781.69;1721627;82;21161;-40
2021/01/08 02:14:34;;;;;;;2.98;2.25;;;;;;;3.82;72.08;99780.32;1722550;82;21355;-42
2021/01/08 02:17:02;;;;;;;2.52;2.27;;;;;;;3.85;72.16;99773.59;1725500;82;21356;-46
2021/01/08 02:19:48;;;;;;;2.42;2.22;;;;;;;3.88;71.94;99782.69;1723059;82;21327;-40
2021/01/08 02:22:29;;;;;;;2.42;1.92;;;;;;;3.90;71.86;99779.53;1697051;82;21134;-40
2021/01/08 02:25:05;;;;;;;2.98;2.27;;;;;;;3.89;71.65;99792.34;1722967;82;21162;-43
2021/01/08 02:27:33;;;;;;;3.15;2.00;;;;;;;3.87;71.55;99786.27;1724828;82;21295;-37
2021/01/08 02:30:01;;;;;;;4.03;2.62;;;;;;;3.81;71.42;99796.61;1698144;82;21700;-41
2021/01/08 02:32:28;;;;;;;3.08;2.00;;;;;;;3.78;71.63;99793.23;1723554;82;22633;-44
2021/01/08 02:34:56;;;;;;;2.75;2.22;;;;;;;3.75;71.71;99790.73;1723736;82;21194;-38
2021/01/08 02:37:25;;;;;;;2.65;1.90;;;;;;;3.72;71.84;99789.54;1723862;82;21285;-40
2021/01/08 02:39:52;;;;;;;2.37;1.92;;;;;;;3.75;72.01;99793.36;1693763;82;21288;-38
2021/01/08 02:42:20;;;;;;;3.85;2.00;;;;;;;3.77;71.95;99787.56;1725337;82;21295;-43
2021/01/08 02:44:48;;;;;;;2.35;1.57;;;;;;;3.78;71.72;99798.06;1698791;82;21302;-39
2021/01/08 02:47:18;;;;;;;2.33;2.00;;;;;;;3.78;71.64;99794.55;1724420;82;21300;-41
2021/01/08 02:49:46;;;;;;;2.05;1.85;;;;;;;3.78;71.37;99803.34;1722872;82;21139;-38
2021/01/08 02:52:14;;;;;;;2.17;1.95;;;;;;;3.80;71.43;99808.53;1727672;82;21335;-39
2021/01/08 02:54:42;;;;;;;2.25;2.05;;;;;;;3.81;71.21;99815.55;1732530;81;21306;-38
2021/01/08 02:57:10;;;;;;;2.08;1.70;;;;;;;3.79;71.24;99823.98;1743008;80;21601;-39
2021/01/08 02:59:37;;;;;;;2.47;1.75;;;;;;;3.80;71.16;99823.05;1743046;81;21158;-40
2021/01/08 03:02:05;;;;;;;2.35;1.82;;;;;;;3.80;71.23;99821.72;1717772;81;21322;-38
2021/01/08 03:04:33;;;;;;;2.17;1.57;;;;;;;3.83;71.08;99828.19;1745946;80;21565;-41
2021/01/08 03:07:01;;;;;;;2.87;2.22;;;;;;;3.85;71.20;99827.67;1743568;81;21283;-41
2021/01/08 03:09:28;;;;;;;2.27;1.90;;;;;;;3.86;71.12;99830.25;1697907;82;21296;-36
2021/01/08 03:11:57;;;;;;;2.20;1.90;;;;;;;3.86;70.77;99836.00;1746392;81;21290;-39
2021/01/08 03:14:25;;;;;;;3.47;2.10;;;;;;;3.82;70.63;99836.56;1742961;80;21315;-37
2021/01/08 03:16:52;;;;;;;2.67;2.10;;;;;;;3.79;70.77;99845.08;1721254;81;21283;-38
2021/01/08 03:19:23;;;;;;;2.40;1.77;;;;;;;3.77;70.91;99845.12;1682780;83;21715;-41
2021/01/08 03:21:50;;;;;;;2.02;1.50;;;;;;;3.80;70.92;99845.47;1741216;81;21294;-38
2021/01/08 03:24:17;;;;;;;2.47;1.90;;;;;;;3.81;70.81;99844.56;1743038;81;21138;-40
2021/01/08 03:26:45;;;;;;;2.95;2.05;;;;;;;3.82;70.81;99841.84;1743765;80;21135;-40
2021/01/08 03:29:12;;;;;;;2.25;1.57;;;;;;;3.83;70.79;99851.92;1742358;80;21276;-41
2021/01/08 03:31:40;;;;;;;2.25;1.80;;;;;;;3.84;70.66;99860.26;1741671;80;21177;-40
2021/01/08 03:34:08;;;;;;;3.15;1.82;;;;;;;3.81;70.64;99859.07;1743394;80;21266;-39
2021/01/08 03:36:36;;;;;;;2.55;1.90;;;;;;;3.82;70.69;99856.82;1743661;80;21128;-42
2021/01/08 03:39:03;;;;;;;3.22;2.52;;;;;;;3.82;70.61;99864.73;1742737;80;21138;-41
2021/01/08 03:41:31;;;;;;;2.60;2.00;;;;;;;3.80;70.56;99862.14;1743738;80;21312;-38
2021/01/08 03:43:58;;;;;;;3.40;2.20;;;;;;;3.82;70.61;99871.33;1744809;80;21125;-40
2021/01/08 03:46:26;;;;;;;3.55;2.70;;;;;;;3.80;70.50;99868.73;1740849;80;21311;-40
2021/01/08 03:48:54;;;;;;;2.98;2.20;;;;;;;3.79;70.58;99871.45;1742473;81;21154;-38
2021/01/08 03:51:21;;;;;;;3.35;2.12;;;;;;;3.79;70.59;99878.91;1743196;81;21321;-41
2021/01/08 03:53:49;;;;;;;3.17;2.12;;;;;;;3.82;70.69;99877.45;1741785;81;21295;-41
2021/01/08 03:56:16;;;;;;;2.60;1.92;;;;;;;3.87;70.70;99886.51;1750682;80;21159;-41
2021/01/08 03:58:44;;;;;;;3.02;2.00;;;;;;;3.88;70.54;99882.50;1750894;80;21609;-40
2021/01/08 04:01:11;;;;;;;2.10;1.75;;;;;;;3.90;70.54;99888.55;1751490;80;21345;-41
2021/01/08 04:03:39;;;;;;;2.98;1.85;;;;;;;3.95;70.51;99893.64;1747929;80;21720;-38
2021/01/08 04:06:08;;;;;;;3.05;2.00;;;;;;;3.97;70.43;99881.25;1751209;80;21352;-41
2021/01/08 04:08:36;;;;;;;2.83;1.95;;;;;;;3.97;70.35;99890.48;1747923;80;21260;-42
2021/01/08 04:11:04;;;;;;;2.75;1.90;;;;;;;3.99;70.27;99889.13;1750577;80;21297;-42
2021/01/08 04:13:31;;;;;;;2.90;2.47;;;;;;;4.02;70.06;99888.52;1751449;80;21161;-41
2021/01/08 04:15:59;;;;;;;3.17;2.60;;;;;;;4.04;70.02;99891.11;1749713;80;21283;-41
2021/01/08 04:18:26;;;;;;;3.08;2.37;;;;;;;4.02;69.89;99899.08;1748315;81;21129;-39
2021/01/08 04:20:54;;;;;;;3.10;2.37;;;;;;;4.02;69.72;99900.39;1745396;80;21320;-40
2021/01/08 04:23:22;;;;;;;3.12;2.42;;;;;;;4.04;69.71;99901.66;1749174;81;21145;-40
2021/01/08 04:25:50;;;;;;;5.25;2.62;;;;;;;4.05;69.69;99907.33;1751186;80;21599;-41
2021/01/08 04:28:17;;;;;;;3.52;2.40;;;;;;;4.03;69.81;99896.86;1752374;80;21307;-40
2021/01/08 04:30:45;;;;;;;3.85;2.67;;;;;;;4.04;69.58;99897.23;1750397;80;22354;-40
2021/01/08 04:33:13;;;;;;;3.35;2.40;;;;;;;4.04;69.45;99912.22;1749795;80;21301;-40
2021/01/08 04:35:40;;;;;;;4.85;2.80;;;;;;;4.02;69.58;99916.23;1750590;81;21272;-38
2021/01/08 04:38:08;;;;;;;3.65;2.83;;;;;;;4.03;69.46;99912.69;1749255;81;21133;-42
2021/01/08 04:40:35;;;;;;;3.15;2.33;;;;;;;4.00;69.39;99923.34;1749800;80;21287;-41
2021/01/08 04:43:03;;;;;;;4.83;2.80;;;;;;;4.01;69.47;99922.91;1748405;80;21296;-38
2021/01/08 04:45:30;;;;;;;7.22;3.67;;;;;;;4.00;69.40;99931.25;1751667;80;21128;-39
2021/01/08 04:47:58;;;;;;;4.97;3.52;;;;;;;3.97;69.36;99926.58;1751587;80;21347;-40
2021/01/08 04:50:26;;;;;;;5.33;3.70;;;;;;;3.95;69.29;99928.41;1721312;81;21773;-41
2021/01/08 04:52:54;;;;;;;4.97;4.03;;;;;;;3.94;69.44;99926.23;1721315;81;21661;-36
2021/01/08 04:55:22;;;;;;;5.40;4.33;;;;;;;3.94;69.44;99924.06;1742043;80;21308;-39
2021/01/08 04:57:50;;;;;;;6.47;4.65;;;;;;;3.92;69.29;99926.75;1686028;82;21871;-40
2021/01/08 05:00:19;;;;;;;7.22;4.80;;;;;;;3.90;69.37;99924.63;1732903;81;21111;-39
2021/01/08 05:02:46;;;;;;;7.03;4.58;;;;;;;3.87;69.52;99932.20;1736057;81;21292;-42
2021/01/08 05:05:14;;;;;;;8.25;5.75;;;;;;;3.85;69.82;99930.08;1734942;81;21163;-41
2021/01/08 05:07:41;;;;;;;8.88;5.85;;;;;;;3.88;69.78;99930.42;1706633;82;21688;-40
2021/01/08 05:10:10;;;;;;;6.78;4.92;;;;;;;3.89;69.89;99934.33;1708132;81;21292;-40
2021/01/08 05:12:43;;;;;;;7.90;5.53;;;;;;;3.94;69.82;99941.22;1736134;81;21593;-43
2021/01/08 05:15:14;;;;;;;6.17;4.92;;;;;;;3.96;69.84;99946.83;1734377;81;21142;-41
2021/01/08 05:17:42;;;;;;;7.17;5.33;;;;;;;4.01;69.88;99947.97;1731694;81;21154;-40
2021/01/08 05:20:10;;;;;;;6.05;4.35;;;;;;;4.05;69.72;99949.08;1735146;81;21641;-42
2021/01/08 05:22:39;;;;;;;6.28;5.05;;;;;;;4.08;69.48;99947.66;1735133;81;21136;-41
2021/01/08 05:25:11;;;;;;;8.10;5.37;;;;;;;4.08;69.03;99942.38;1734808;81;21118;-41
2021/01/08 05:27:39;;;;;;;7.70;5.28;;;;;;;4.08;69.13;99952.05;1737479;81;21117;-41
2021/01/08 05:30:25;;;;;;;7.00;5.45;;;;;;;4.06;69.12;99948.18;1735401;81;21144;-40
2021/01/08 05:32:59;;;;;;;8.35;6.15;;;;;;;4.08;69.12;99947.66;1735836;81;21130;-40
2021/01/08 05:35:28;;;;;;;8.40;6.25;;;;;;;4.10;69.01;99956.81;1734067;81;21146;-42
2021/01/08 05:37:56;;;;;;;10.53;5.70;;;;;;;4.12;68.94;99962.44;1733467;81;21122;-40
2021/01/08 05:40:27;;;;;;;8.55;6.15;;;;;;;4.13;68.94;99973.84;1733599;81;21102;-40
2021/01/08 05:42:57;;;;;;;8.45;5.85;;;;;;;4.12;68.87;99982.23;1691891;83;21177;-41
2021/01/08 05:45:26;;;;;;;9.95;7.37;;;;;;;4.12;68.97;99987.97;1729306;81;21169;-42
2021/01/08 05:47:57;;;;;;;8.38;6.33;;;;;;;4.11;68.93;99991.08;1738646;81;21732;-40
2021/01/08 05:50:28;;;;;;;9.78;7.47;;;;;;;4.10;68.94;99993.30;1737803;81;21625;-42
2021/01/08 05:53:03;;;;;;;;;;;;;;;4.09;69.06;99992.91;1738157;81;22105;-46
2021/01/08 05:55:37;;;;;;;12.25;7.62;;;;;;;4.10;68.95;99993.77;1732982;81;20253;-43
2021/01/08 05:58:21;;;;;;;11.48;7.87;;;;;;;4.08;68.82;99999.56;1741249;80;21142;-45
2021/01/08 06:01:03;;;;;;;13.00;8.03;;;;;;;4.06;68.98;100000.95;1739960;80;21122;-44
2021/01/08 06:03:31;;;;;;;10.78;7.60;;;;;;;4.06;68.99;99997.00;1741224;80;21139;-42
2021/01/08 06:05:59;;;;;;;12.37;8.58;;;;;;;4.08;68.98;100007.47;1741702;80;21186;-43
2021/01/08 06:08:48;;;;;;;11.35;8.45;;;;;;;4.10;68.87;100005.64;1741409;80;21142;-41
2021/01/08 06:11:28;;;;;;;14.07;9.30;;;;;;;4.13;68.91;100010.80;1740666;80;21157;-42
2021/01/08 06:14:03;;;;;;;13.68;9.38;;;;;;;4.15;68.50;100022.63;1744331;80;21161;-43
2021/01/08 06:16:43;;;;;;;12.13;8.45;;;;;;;4.11;68.61;100024.53;1741468;81;21151;-47
2021/01/08 06:19:13;;;;;;;15.20;10.23;;;;;;;4.09;68.70;100034.28;1722991;81;21115;-46
2021/01/08 06:21:45;;;;;;;16.25;10.70;;;;;;;4.04;68.42;100037.09;1721026;80;21161;-40
2021/01/08 06:24:16;;;;;;;14.33;9.40;;;;;;;4.01;68.64;100042.97;1743649;80;21284;-44
2021/01/08 06:26:43;;;;;;;12.58;10.13;;;;;;;4.02;68.72;100047.31;1743471;80;21590;-46
2021/01/08 06:29:20;;;;;;;14.00;9.48;;;;;;;4.05;68.60;100041.44;1757686;80;21145;-44
2021/01/08 06:31:52;;;;;;;13.18;9.28;;;;;;;4.02;68.61;100045.99;1742159;80;21153;-38
2021/01/08 06:34:26;;;;;;;13.62;9.58;;;;;;;4.02;68.64;100061.83;1743749;80;21192;-43
2021/01/08 06:37:10;;;;;;;14.25;9.45;;;;;;;4.02;68.60;100061.36;1741218;81;21130;-42
2021/01/08 06:39:40;;;;;;;16.00;9.63;;;;;;;4.02;68.47;100061.83;1742512;80;21236;-44
2021/01/08 06:42:08;;;;;;;14.93;10.50;;;;;;;3.98;68.43;100074.72;1741329;80;21145;-42
2021/01/08 06:44:37;;;;;;;12.43;9.40;;;;;;;3.95;68.62;100078.80;1740479;80;21636;-41
2021/01/08 06:47:05;;;;;;;15.70;10.82;;;;;;;3.97;68.74;100075.19;1744400;80;21971;-40
2021/01/08 06:49:39;;;;;;;12.88;8.83;;;;;;;4.00;68.69;100076.84;1741801;80;21130;-42
2021/01/08 06:52:14;;;;;;;12.80;9.10;;;;;;;4.03;68.80;100082.00;1744755;80;21158;-39
2021/01/08 06:54:42;;;;;;;14.53;10.25;;;;;;;4.06;68.69;100078.80;1741687;80;21146;-43
2021/01/08 06:57:19;;;;;;;16.35;11.60;;;;;;;4.08;68.52;100090.17;1732656;80;21562;-40
2021/01/08 06:59:56;;;;;;;16.30;11.78;;;;;;;4.07;68.42;100096.81;1748307;80;21149;-40
2021/01/08 07:02:25;;;;;;;14.07;10.75;;;;;;;4.04;68.42;100095.62;1751616;80;21134;-39
2021/01/08 07:04:54;;;;;;;16.90;11.88;;;;;;;4.00;68.57;100096.64;1747055;80;21170;-41
2021/01/08 07:07:26;;;;;;;15.03;10.35;;;;;;;3.99;68.65;100103.70;1753211;80;22166;-43
2021/01/08 07:09:54;;;;;;;14.33;10.38;;;;;;;4.00;68.73;100103.23;1753445;80;21689;-42
2021/01/08 07:12:25;;;;;;;14.68;11.20;;;;;;;4.02;68.74;100108.00;1748261;80;21150;-38
2021/01/08 07:14:53;;;;;;;;;;;;;;;4.03;68.62;100105.31;1756826;80;21118;-41
2021/01/08 07:17:33;;;;;;;15.78;10.68;;;;;;;4.01;68.35;100116.84;1755167;80;20161;-40
2021/01/08 07:20:04;;;;;;;15.55;10.85;;;;;;;3.99;68.56;100116.04;1750835;80;21154;-39
2021/01/08 07:22:39;;;;;;;15.50;11.30;;;;;;;3.97;68.60;100120.04;1749152;80;21129;-39
2021/01/08 07:25:13;;;;;;;19.00;12.80;;;;;;;3.96;68.45;100121.44;1747927;80;21136;-42
2021/01/08 07:27:41;;;;;;;13.53;9.93;;;;;;;3.95;68.48;100127.14;1749227;80;21157;-40
2021/01/08 07:30:10;;;;;;;15.50;10.90;;;;;;;3.97;68.48;100123.14;1752966;80;21179;-42
2021/01/08 07:32:47;;;;;;;16.90;10.55;;;;;;;3.99;68.52;100122.64;1748844;80;21153;-40
2021/01/08 07:35:30;;;;;;;15.72;10.70;;;;;;;4.00;68.44;100123.88;1747123;80;21166;-43
2021/01/08 07:38:14;;;;;;;13.20;9.58;;;;;;;4.01;68.44;100122.13;1745498;80;21606;-46
2021/01/08 07:40:56;;;;;;;15.80;10.00;;;;;;;4.01;68.24;100137.49;1746075;80;21121;-43
2021/01/08 07:43:34;;;;;;;15.20;10.28;;;;;;;4.04;68.23;100132.56;1750441;80;21133;-41
2021/01/08 07:46:03;;;;;;;15.75;10.80;;;;;;;4.05;68.19;100139.55;1746998;80;21302;-43
2021/01/08 07:48:40;;;;;;;12.70;9.33;;;;;;;4.07;68.26;100141.21;1748902;80;21164;-39
2021/01/08 07:51:10;;;;;;;13.72;9.48;;;;;;;4.08;68.00;100142.06;1747703;80;21121;-41
2021/01/08 07:53:50;;;;;;;12.85;10.53;;;;;;;4.08;68.01;100144.27;1749357;80;21157;-44
2021/01/08 07:56:24;;;;;;;14.33;9.68;;;;;;;4.05;67.82;100148.31;1751788;80;21183;-40
2021/01/08 07:58:58;;;;;;;17.30;10.55;;;;;;;4.01;67.88;100149.37;1749062;80;21140;-44
2021/01/08 08:01:27;;;;;;;15.18;10.20;;;;;;;3.98;68.03;100154.77;1744118;80;21624;-40
2021/01/08 08:04:03;;;;;;;13.15;9.28;;;;;;;3.96;68.16;100151.78;1750478;80;21144;-44
2021/01/08 08:06:32;;;;;;;16.02;10.78;;;;;;;3.99;68.11;100144.59;1750009;80;21147;-44
2021/01/08 08:09:01;;;;;;;13.68;10.32;;;;;;;4.03;68.02;100151.50;1744064;80;21700;-47
2021/01/08 08:11:34;;;;;;;19.25;11.00;;;;;;;4.03;68.03;100148.86;1748415;80;21155;-44
2021/01/08 08:14:09;;;;;;;12.33;8.83;;;;;;;4.02;67.87;100148.44;1746967;80;21651;-43
2021/01/08 08:16:37;;;;;;;14.15;10.40;;;;;;;4.02;67.99;100158.14;1752481;80;21125;-46
2021/01/08 08:19:07;;;;;;;12.90;9.38;;;;;;;4.03;67.71;100158.53;1750860;80;21157;-44
2021/01/08 08:21:36;;;;;;;15.78;10.78;;;;;;;4.01;67.54;100157.75;1744311;80;21184;-41
2021/01/08 08:24:05;;;;;;;13.88;10.10;;;;;;;3.98;67.71;100153.45;1743114;80;21168;-43
2021/01/08 08:26:34;;;;;;;16.97;11.75;;;;;;;3.98;67.81;100150.81;1750028;80;21145;-41
2021/01/08 08:29:12;;;;;;;13.25;9.60;;;;;;;3.99;67.74;100156.94;1748990;80;21157;-43
2021/01/08 08:31:48;;;;;;;15.65;10.48;;;;;;;3.98;67.73;100149.48;1747756;80;21144;-42
2021/01/08 08:34:27;;;;;;;13.72;10.15;;;;;;;3.96;67.61;100156.59;1748725;80;21165;-43
2021/01/08 08:37:08;;;;;;;18.07;12.00;;;;;;;3.96;67.64;100153.95;1749620;80;21157;-41
2021/01/08 08:39:36;;;;;;;15.18;10.10;;;;;;;3.96;67.55;100163.66;1748637;80;21114;-40
2021/01/08 08:42:04;;;;;;;13.93;10.05;;;;;;;3.94;67.76;100176.89;1746884;80;21163;-41
2021/01/08 08:44:42;;;;;;;14.43;12.03;;;;;;;3.95;67.61;100178.59;1748727;80;22049;-44
2021/01/08 08:47:11;;;;;;;14.55;11.08;;;;;;;3.99;67.54;100173.63;1751864;80;21492;-40
2021/01/08 08:49:40;;;;;;;;;;;;;;;3.99;67.36;100184.64;1750962;80;21666;-40
2021/01/08 08:52:08;;;;;;;13.08;9.98;;;;;;;3.99;67.25;100188.60;1750333;80;20220;-43
2021/01/08 08:54:38;;;;;;;12.13;9.25;;;;;;;4.00;67.21;100194.27;1750069;80;21149;-38
2021/01/08 08:57:08;;;;;;;15.55;11.18;;;;;;;4.02;67.20;100188.48;1752733;80;21165;-42
2021/01/08 08:59:41;;;;;;;12.93;9.90;;;;;;;4.03;66.93;100191.08;1754100;80;21141;-40
2021/01/08 09:02:10;;;;;;;14.90;10.38;;;;;;;4.05;67.02;100193.18;1754410;80;21135;-40
2021/01/08 09:04:54;;;;;;;11.93;9.68;;;;;;;4.07;66.69;100197.95;1750909;80;21161;-40
2021/01/08 09:10:58;;;;;;;12.05;8.93;;;;;;;4.06;66.49;100179.09;1789901;78;23643;-40
2021/01/08 09:13:48;;;;;;;13.45;10.15;;;;;;;4.06;66.36;100187.47;1703007;82;21901;-37
2021/01/08 09:16:51;;;;;;;12.88;9.70;;;;;;;4.07;66.25;100187.86;1734401;81;21748;-41
2021/01/08 09:19:34;;;;;;;11.12;8.80;;;;;;;4.07;66.01;100194.45;1720318;81;21161;-40
2021/01/08 09:22:04;;;;;;;;;;;;;;;4.10;66.25;100195.66;1702462;83;21152;-40
2021/01/08 09:24:32;;;;;;;11.40;8.38;;;;;;;4.09;65.52;100193.95;1738084;81;20479;-40
2021/01/08 09:27:00;;;;;;;12.05;8.45;;;;;;;4.07;65.12;100201.05;1713753;81;21192;-41
2021/01/08 09:29:34;;;;;;;10.40;7.87;;;;;;;4.04;65.41;100204.66;1741721;81;21173;-38
2021/01/08 09:32:03;;;;;;;13.32;9.10;;;;;;;4.08;65.49;100212.89;1734999;81;21132;-44
2021/01/08 09:34:31;;;;;;;12.68;9.30;;;;;;;4.11;65.33;100207.95;1721697;81;21130;-42
2021/01/08 09:36:59;;;;;;;13.60;9.38;;;;;;;4.14;65.30;100209.16;1722474;81;21175;-40
2021/01/08 09:39:29;;;;;;;12.90;10.00;;;;;;;4.16;65.46;100206.02;1719292;82;21166;-39
2021/01/08 09:41:59;;;;;;;12.67;9.40;;;;;;;4.21;65.10;100200.53;1741226;81;21182;-43
2021/01/08 09:44:34;;;;;;;11.80;9.07;;;;;;;4.19;64.76;100203.25;1746668;81;21145;-42
2021/01/08 09:47:06;;;;;;;10.45;8.38;;;;;;;4.18;64.64;100200.66;1715160;82;21159;-39
2021/01/08 09:49:43;;;;;;;11.97;8.18;;;;;;;4.15;64.47;100203.41;1710684;82;21251;-41
2021/01/08 09:52:11;;;;;;;11.80;8.73;;;;;;;4.12;64.37;100202.61;1711712;81;21156;-40
2021/01/08 09:54:45;;;;;;;11.20;8.65;;;;;;;4.12;64.64;100202.61;1698082;83;21174;-40
2021/01/08 09:57:29;;;;;;;11.53;8.23;;;;;;;4.14;64.63;100209.63;1698843;82;21197;-40
2021/01/08 10:00:07;;;;;;;12.98;9.80;;;;;;;4.16;64.47;100207.33;1698487;83;21189;-38
2021/01/08 10:02:44;;;;;;;10.98;8.53;;;;;;;4.19;64.26;100206.36;1688945;82;21149;-38
2021/01/08 10:05:34;;;;;;;9.70;6.92;;;;;;;4.15;64.01;100207.38;1700728;82;21144;-38
2021/01/08 10:08:04;;;;;;;11.00;7.72;;;;;;;4.15;64.05;100203.41;1693180;82;21165;-39
2021/01/08 10:10:38;;;;;;;9.25;7.50;;;;;;;4.14;63.71;100202.56;1691492;82;21193;-40
2021/01/08 10:13:15;;;;;;;9.13;7.35;;;;;;;4.09;63.87;100206.68;1695011;82;21200;-39
2021/01/08 10:15:51;;;;;;;9.20;7.15;;;;;;;4.12;64.13;100199.97;1676018;83;21189;-39
2021/01/08 10:18:27;;;;;;;6.78;5.58;;;;;;;4.16;63.58;100210.41;1679468;83;21177;-41
2021/01/08 10:21:07;;;;;;;8.70;6.80;;;;;;;4.10;63.29;100212.34;1669192;83;21173;-39
2021/01/08 10:23:40;;;;;;;8.93;6.33;;;;;;;4.04;63.30;100204.66;1676824;83;21173;-39
2021/01/08 10:26:18;;;;;;;9.30;7.05;;;;;;;4.01;63.08;100208.74;1686598;82;21172;-41
2021/01/08 10:28:56;;;;;;;10.13;7.33;;;;;;;4.04;63.18;100207.77;1692010;82;21148;-43
2021/01/08 10:31:24;;;;;;;10.63;7.12;;;;;;;4.07;63.09;100209.83;1675656;83;21153;-42
2021/01/08 10:33:52;;;;;;;9.68;6.30;;;;;;;4.09;62.96;100209.78;1672562;84;21249;-42
2021/01/08 10:36:20;;;;;;;9.48;6.33;;;;;;;4.11;63.14;100207.49;1691554;82;21498;-43
2021/01/08 10:38:47;;;;;;;9.13;6.53;;;;;;;4.14;62.86;100208.30;1703115;82;22354;-39
2021/01/08 10:41:16;;;;;;;8.73;6.80;;;;;;;4.14;63.01;100205.20;1681091;83;21956;-40
2021/01/08 10:43:45;;;;;;;10.25;5.83;;;;;;;4.11;62.01;100211.92;1688218;83;21188;-42
2021/01/08 10:46:14;;;;;;;8.45;6.25;;;;;;;4.03;62.31;100212.19;1707173;82;21163;-40
2021/01/08 10:48:42;;;;;;;6.55;5.47;;;;;;;3.96;62.24;100213.32;1682464;82;21186;-40
2021/01/08 10:51:10;;;;;;;7.72;5.58;;;;;;;3.92;62.49;100211.70;1680144;84;21193;-40
2021/01/08 10:53:38;;;;;;;8.75;6.05;;;;;;;3.89;62.63;100204.75;1683645;83;21187;-42
2021/01/08 10:56:05;;;;;;;7.22;5.45;;;;;;;3.93;62.60;100211.23;1710207;83;21168;-44
2021/01/08 10:58:36;;;;;;;8.45;5.95;;;;;;;3.97;62.85;100213.71;1680812;83;21217;-43
2021/01/08 11:01:04;;;;;;;8.90;6.33;;;;;;;4.05;62.97;100219.57;1714289;81;21157;-39
2021/01/08 11:03:32;;;;;;;9.00;6.55;;;;;;;4.14;62.98;100212.27;1710348;81;21822;-42
2021/01/08 11:06:00;;;;;;;9.30;6.60;;;;;;;4.18;62.46;100209.43;1687651;83;21174;-41
2021/01/08 11:08:27;;;;;;;7.28;5.40;;;;;;;4.22;62.46;100211.52;1707891;81;21126;-39
2021/01/08 11:10:55;;;;;;;8.20;5.95;;;;;;;4.25;62.16;100206.13;1703308;82;21261;-42
2021/01/08 11:13:22;;;;;;;7.92;5.75;;;;;;;4.25;61.60;100207.44;1696240;83;21961;-44
2021/01/08 11:15:50;;;;;;;8.50;5.92;;;;;;;4.24;61.26;100214.50;1679229;83;21145;-42
2021/01/08 11:18:17;;;;;;;9.28;6.75;;;;;;;4.24;61.40;100214.50;1685847;83;21147;-43
2021/01/08 11:20:49;;;;;;;8.30;6.17;;;;;;;4.25;61.36;100210.08;1709327;82;21177;-46
2021/01/08 11:23:17;;;;;;;9.68;6.00;;;;;;;4.27;61.32;100217.48;1712255;81;21185;-42
2021/01/08 11:25:44;;;;;;;8.40;6.35;;;;;;;4.27;60.74;100216.17;1704132;82;21164;-41
2021/01/08 11:28:12;;;;;;;8.90;6.78;;;;;;;4.18;60.43;100213.39;1706424;83;21209;-39
2021/01/08 11:30:40;;;;;;;8.00;5.95;;;;;;;4.10;60.40;100212.81;1703506;83;21201;-40
2021/01/08 11:33:07;;;;;;;8.85;6.47;;;;;;;4.06;60.31;100214.72;1696416;83;21160;-41
2021/01/08 11:35:36;;;;;;;8.55;6.22;;;;;;;4.05;60.44;100218.72;1712634;83;21190;-41
2021/01/08 11:38:04;;;;;;;8.05;6.35;;;;;;;4.08;60.64;100219.92;1701904;81;21173;-40
2021/01/08 11:40:31;;;;;;;7.42;5.78;;;;;;;4.11;60.24;100230.39;1694422;82;21183;-41
2021/01/08 11:43:01;;;;;;;9.68;6.35;;;;;;;4.13;60.02;100225.89;1695280;82;21206;-42
2021/01/08 11:45:28;;;;;;;7.78;5.33;;;;;;;4.15;60.01;100229.34;1692299;82;21172;-41
2021/01/08 11:47:56;;;;;;;9.30;6.72;;;;;;;4.17;60.17;100234.11;1693663;83;22094;-42
2021/01/08 11:50:24;;;;;;;8.45;5.95;;;;;;;4.18;60.14;100235.83;1696107;83;21232;-42
2021/01/08 11:52:51;;;;;;;8.85;5.95;;;;;;;4.18;59.92;100232.33;1694562;83;21161;-41
2021/01/08 11:55:19;;;;;;;7.35;5.80;;;;;;;4.16;59.70;100241.64;1694469;84;21698;-40
2021/01/08 11:57:47;;;;;;;9.03;5.58;;;;;;;4.12;59.45;100243.98;1700290;82;21162;-38